Beallsville, OH (43716)

3:42 PM EDT on September 30, 2014 (GMT -0400)
Jerusalem | Change Station
CLOSE
Current Station
Personal Weather Station
Location: Jerusalem, OH
Elevation: 1253 ft
Nearby Weather Stations

Elev 1253 ft 39.86 °N, 81.11 °W | Updated 10 seconds ago

Overcast
Overcast
67.3 °F
Feels Like 67.3 °F
N
3.1
Wind Variable Wind from South
Gusts 3.1 mph

Today
High -- | Low -- °F
--% Chance of Precip.
Yesterday
High -- | Low -- °F
Precip. -- in
7:19 AM 7:08 PM
Waxing Crescent, 39% visible
Pressure 29.91 in
Visibility 10.0 miles
Clouds Few 800 ft
Scattered Clouds 3600 ft
Mostly Cloudy 9500 ft
Dew Point 62 °F
Humidity 82%
Rainfall 0.18 in
Snow Depth Not available.
UV 3 out of 12
Pollen 2.10 out of 12
Air Quality Not available.
Flu Activity Not available.
METAR KHLG 301853Z 00000KT 10SM FEW008 SCT036 BKN095 17/15 A2991 RMK AO2 RAE11B27E43 SLP128 P0000 T01720150

More Conditions Fewer Conditions

Pressure 29.91 in
Visibility 10.0 miles
Clouds Few 800 ft
Scattered Clouds 3600 ft
Mostly Cloudy 9500 ft
Dew Point 62 °F
Humidity 82%
Rainfall 0.18 in
Snow Depth Not available.
UV 3 out of 12
Pollen 2.10 out of 12
Air Quality Not available.
Flu Activity Not available.
METAR KHLG 301853Z 00000KT 10SM FEW008 SCT036 BKN095 17/15 A2991 RMK AO2 RAE11B27E43 SLP128 P0000 T01720150

More Conditions Fewer Conditions

10-Day Weather Forecast

Almanac

Astronomy

Sep. 30, 2014 Rise Set
Actual Time 7:19 AM EDT 7:08 PM EDT
Civil Twilight 6:52 AM EDT 7:34 PM EDT
Nautical Twilight 6:20 AM EDT 8:06 PM EDT
Astronomical Twilight 5:49 AM EDT 8:37 PM EDT
Moon 1:25 PM EDT 11:37 PM EDT
Length of Visible Light 12h 42m
Length of Day
11h 48m
Tomorrow will be 2m 36s shorter.
Waxing Crescent, 39% of the Moon is Illuminated
Today
Waxing Crescent
Oct 1
First Quarter
Oct 8
Full
Oct 15
Last Quarter
Oct 23
New

Today's Extremes

State Highs State Lows

Community

WunderPhotos

Upload Photos

1,757,731 photos uploaded!

Nearby

Snow Depth

Station Depth Elevation
No new snow has been reported.

Earthquake Activity

City Distance Mag. Time & Date
No recent earthquake activity has been reported nearby.
Minimum magnitude displayed is 2.5.

Coastal Water Temperatures

Place Temperature
No Stations Reporting

Nearby Weather Stations